sensor_id;sensor_type;location;lat;lon;timestamp;P1;durP1;ratioP1;P2;durP2;ratioP2
25381;SDS011;16307;42.896;20.874;2023-04-19T00:00:41;15.02;;;7.85;;
25381;SDS011;16307;42.896;20.874;2023-04-19T00:03:41;10.93;;;7.65;;
25381;SDS011;16307;42.896;20.874;2023-04-19T00:06:40;12.57;;;7.90;;
25381;SDS011;16307;42.896;20.874;2023-04-19T00:09:29;11.90;;;7.60;;
25381;SDS011;16307;42.896;20.874;2023-04-19T00:12:17;13.57;;;7.10;;
25381;SDS011;16307;42.896;20.874;2023-04-19T00:15:09;10.70;;;7.65;;
25381;SDS011;16307;42.896;20.874;2023-04-19T00:18:15;9.93;;;7.28;;
25381;SDS011;16307;42.896;20.874;2023-04-19T00:21:08;10.90;;;7.68;;
25381;SDS011;16307;42.896;20.874;2023-04-19T00:24:01;13.85;;;8.23;;
25381;SDS011;16307;42.896;20.874;2023-04-19T00:27:04;12.52;;;8.38;;
25381;SDS011;16307;42.896;20.874;2023-04-19T00:30:07;11.75;;;8.23;;
25381;SDS011;16307;42.896;20.874;2023-04-19T00:33:00;17.55;;;9.73;;
25381;SDS011;16307;42.896;20.874;2023-04-19T00:35:56;13.25;;;8.00;;
25381;SDS011;16307;42.896;20.874;2023-04-19T00:38:53;12.00;;;7.03;;
25381;SDS011;16307;42.896;20.874;2023-04-19T00:41:50;10.77;;;6.20;;
25381;SDS011;16307;42.896;20.874;2023-04-19T00:44:41;11.77;;;7.63;;
25381;SDS011;16307;42.896;20.874;2023-04-19T00:48:14;13.90;;;7.93;;
25381;SDS011;16307;42.896;20.874;2023-04-19T00:51:18;10.80;;;7.10;;
25381;SDS011;16307;42.896;20.874;2023-04-19T00:54:20;17.35;;;8.77;;
25381;SDS011;16307;42.896;20.874;2023-04-19T00:57:32;17.77;;;8.85;;
25381;SDS011;16307;42.896;20.874;2023-04-19T01:01:13;14.27;;;8.60;;
25381;SDS011;16307;42.896;20.874;2023-04-19T01:04:16;12.32;;;8.00;;
25381;SDS011;16307;42.896;20.874;2023-04-19T01:07:24;13.48;;;8.02;;
25381;SDS011;16307;42.896;20.874;2023-04-19T01:10:19;13.98;;;8.73;;
25381;SDS011;16307;42.896;20.874;2023-04-19T01:13:29;19.77;;;8.13;;
25381;SDS011;16307;42.896;20.874;2023-04-19T01:16:48;11.68;;;7.82;;
25381;SDS011;16307;42.896;20.874;2023-04-19T01:19:58;13.95;;;8.70;;
25381;SDS011;16307;42.896;20.874;2023-04-19T01:23:17;13.15;;;8.05;;
25381;SDS011;16307;42.896;20.874;2023-04-19T01:26:10;15.38;;;8.60;;
25381;SDS011;16307;42.896;20.874;2023-04-19T01:29:11;12.98;;;8.55;;
25381;SDS011;16307;42.896;20.874;2023-04-19T01:32:37;10.95;;;8.07;;
25381;SDS011;16307;42.896;20.874;2023-04-19T01:35:39;15.80;;;7.80;;
25381;SDS011;16307;42.896;20.874;2023-04-19T01:38:41;11.23;;;8.47;;
25381;SDS011;16307;42.896;20.874;2023-04-19T01:41:58;14.38;;;9.52;;
25381;SDS011;16307;42.896;20.874;2023-04-19T01:45:17;12.82;;;9.48;;
25381;SDS011;16307;42.896;20.874;2023-04-19T01:48:29;14.02;;;9.45;;
25381;SDS011;16307;42.896;20.874;2023-04-19T01:51:30;12.63;;;8.73;;
25381;SDS011;16307;42.896;20.874;2023-04-19T01:54:32;13.23;;;9.13;;
25381;SDS011;16307;42.896;20.874;2023-04-19T01:57:58;13.70;;;9.40;;
25381;SDS011;16307;42.896;20.874;2023-04-19T02:00:55;15.13;;;10.15;;
25381;SDS011;16307;42.896;20.874;2023-04-19T02:04:19;15.52;;;9.90;;
25381;SDS011;16307;42.896;20.874;2023-04-19T02:07:34;16.10;;;10.15;;
25381;SDS011;16307;42.896;20.874;2023-04-19T02:10:43;16.23;;;10.73;;
25381;SDS011;16307;42.896;20.874;2023-04-19T02:14:02;16.17;;;10.45;;
25381;SDS011;16307;42.896;20.874;2023-04-19T02:17:07;14.80;;;10.27;;
25381;SDS011;16307;42.896;20.874;2023-04-19T02:20:11;15.48;;;9.98;;
25381;SDS011;16307;42.896;20.874;2023-04-19T02:23:49;17.98;;;11.63;;
25381;SDS011;16307;42.896;20.874;2023-04-19T02:26:53;17.85;;;11.20;;
25381;SDS011;16307;42.896;20.874;2023-04-19T02:30:04;22.15;;;13.07;;
25381;SDS011;16307;42.896;20.874;2023-04-19T02:33:04;20.88;;;12.35;;
25381;SDS011;16307;42.896;20.874;2023-04-19T02:36:22;18.25;;;12.32;;
25381;SDS011;16307;42.896;20.874;2023-04-19T02:39:47;17.33;;;11.38;;
25381;SDS011;16307;42.896;20.874;2023-04-19T02:42:56;15.88;;;10.75;;
25381;SDS011;16307;42.896;20.874;2023-04-19T02:45:57;16.88;;;10.90;;
25381;SDS011;16307;42.896;20.874;2023-04-19T02:49:03;17.65;;;11.75;;
25381;SDS011;16307;42.896;20.874;2023-04-19T02:52:00;19.45;;;11.23;;
25381;SDS011;16307;42.896;20.874;2023-04-19T02:55:04;20.88;;;12.75;;
25381;SDS011;16307;42.896;20.874;2023-04-19T02:58:03;20.88;;;12.68;;
25381;SDS011;16307;42.896;20.874;2023-04-19T03:01:17;16.83;;;11.95;;
25381;SDS011;16307;42.896;20.874;2023-04-19T03:04:19;18.67;;;12.52;;
25381;SDS011;16307;42.896;20.874;2023-04-19T03:07:34;20.30;;;12.80;;
25381;SDS011;16307;42.896;20.874;2023-04-19T03:10:44;17.55;;;12.18;;
25381;SDS011;16307;42.896;20.874;2023-04-19T03:13:49;17.85;;;12.10;;
25381;SDS011;16307;42.896;20.874;2023-04-19T03:21:25;17.73;;;12.50;;
25381;SDS011;16307;42.896;20.874;2023-04-19T03:24:30;20.42;;;13.27;;
25381;SDS011;16307;42.896;20.874;2023-04-19T03:27:48;19.23;;;12.43;;
25381;SDS011;16307;42.896;20.874;2023-04-19T03:31:35;20.88;;;12.30;;
25381;SDS011;16307;42.896;20.874;2023-04-19T03:35:05;17.48;;;12.05;;
25381;SDS011;16307;42.896;20.874;2023-04-19T03:38:49;17.58;;;12.27;;
25381;SDS011;16307;42.896;20.874;2023-04-19T03:42:27;18.35;;;11.45;;
25381;SDS011;16307;42.896;20.874;2023-04-19T03:45:48;17.88;;;11.65;;
25381;SDS011;16307;42.896;20.874;2023-04-19T03:49:07;20.17;;;12.98;;
25381;SDS011;16307;42.896;20.874;2023-04-19T03:56:02;18.58;;;11.98;;
25381;SDS011;16307;42.896;20.874;2023-04-19T03:59:31;17.48;;;11.20;;
25381;SDS011;16307;42.896;20.874;2023-04-19T04:02:54;16.67;;;11.52;;
25381;SDS011;16307;42.896;20.874;2023-04-19T04:06:56;19.85;;;11.45;;
25381;SDS011;16307;42.896;20.874;2023-04-19T04:10:10;21.00;;;11.88;;
25381;SDS011;16307;42.896;20.874;2023-04-19T04:13:46;19.30;;;11.98;;
25381;SDS011;16307;42.896;20.874;2023-04-19T04:17:06;21.55;;;13.50;;
25381;SDS011;16307;42.896;20.874;2023-04-19T04:20:17;22.20;;;13.77;;
25381;SDS011;16307;42.896;20.874;2023-04-19T04:24:22;36.08;;;18.30;;
25381;SDS011;16307;42.896;20.874;2023-04-19T04:28:16;33.83;;;16.25;;
25381;SDS011;16307;42.896;20.874;2023-04-19T04:31:50;29.45;;;15.60;;
25381;SDS011;16307;42.896;20.874;2023-04-19T04:39:17;26.55;;;15.45;;
25381;SDS011;16307;42.896;20.874;2023-04-19T04:42:42;29.08;;;16.65;;
25381;SDS011;16307;42.896;20.874;2023-04-19T04:46:03;24.85;;;16.58;;
25381;SDS011;16307;42.896;20.874;2023-04-19T04:49:15;26.70;;;16.65;;
25381;SDS011;16307;42.896;20.874;2023-04-19T04:52:28;28.70;;;18.45;;
25381;SDS011;16307;42.896;20.874;2023-04-19T04:56:25;30.02;;;16.92;;
25381;SDS011;16307;42.896;20.874;2023-04-19T04:59:52;28.38;;;16.55;;
25381;SDS011;16307;42.896;20.874;2023-04-19T05:03:39;21.75;;;15.05;;
25381;SDS011;16307;42.896;20.874;2023-04-19T05:07:22;20.67;;;14.15;;
25381;SDS011;16307;42.896;20.874;2023-04-19T05:11:08;21.30;;;13.15;;
25381;SDS011;16307;42.896;20.874;2023-04-19T05:14:39;17.95;;;13.13;;
25381;SDS011;16307;42.896;20.874;2023-04-19T05:18:15;19.02;;;12.13;;
25381;SDS011;16307;42.896;20.874;2023-04-19T05:21:54;20.35;;;13.02;;
25381;SDS011;16307;42.896;20.874;2023-04-19T05:25:42;26.90;;;16.98;;
25381;SDS011;16307;42.896;20.874;2023-04-19T05:29:03;30.95;;;20.10;;
25381;SDS011;16307;42.896;20.874;2023-04-19T05:33:07;32.20;;;19.58;;
25381;SDS011;16307;42.896;20.874;2023-04-19T05:36:53;36.33;;;24.15;;
25381;SDS011;16307;42.896;20.874;2023-04-19T05:40:37;32.05;;;20.00;;
25381;SDS011;16307;42.896;20.874;2023-04-19T05:44:52;26.13;;;17.45;;
25381;SDS011;16307;42.896;20.874;2023-04-19T05:49:39;27.20;;;16.48;;
25381;SDS011;16307;42.896;20.874;2023-04-19T05:53:28;28.58;;;17.30;;
25381;SDS011;16307;42.896;20.874;2023-04-19T06:02:01;28.25;;;16.25;;
25381;SDS011;16307;42.896;20.874;2023-04-19T06:06:06;28.90;;;16.70;;
25381;SDS011;16307;42.896;20.874;2023-04-19T06:09:53;30.55;;;18.27;;
25381;SDS011;16307;42.896;20.874;2023-04-19T06:14:09;31.20;;;19.20;;
25381;SDS011;16307;42.896;20.874;2023-04-19T06:28:06;32.55;;;19.27;;
25381;SDS011;16307;42.896;20.874;2023-04-19T07:18:27;37.38;;;20.38;;
25381;SDS011;16307;42.896;20.874;2023-04-19T07:40:14;37.25;;;18.73;;
25381;SDS011;16307;42.896;20.874;2023-04-19T08:02:55;23.90;;;14.32;;
25381;SDS011;16307;42.896;20.874;2023-04-19T08:05:52;24.52;;;15.75;;
25381;SDS011;16307;42.896;20.874;2023-04-19T08:19:13;21.73;;;14.18;;
25381;SDS011;16307;42.896;20.874;2023-04-19T08:26:16;26.25;;;15.52;;
25381;SDS011;16307;42.896;20.874;2023-04-19T08:34:39;32.80;;;15.77;;
25381;SDS011;16307;42.896;20.874;2023-04-19T09:01:49;27.02;;;16.00;;
25381;SDS011;16307;42.896;20.874;2023-04-19T09:09:33;26.35;;;16.05;;
25381;SDS011;16307;42.896;20.874;2023-04-19T09:12:28;25.90;;;14.05;;
25381;SDS011;16307;42.896;20.874;2023-04-19T09:15:14;20.98;;;13.55;;
25381;SDS011;16307;42.896;20.874;2023-04-19T09:18:04;25.00;;;15.50;;
25381;SDS011;16307;42.896;20.874;2023-04-19T09:24:38;25.38;;;15.10;;
25381;SDS011;16307;42.896;20.874;2023-04-19T09:31:39;20.95;;;13.45;;
25381;SDS011;16307;42.896;20.874;2023-04-19T09:35:07;22.63;;;14.18;;
25381;SDS011;16307;42.896;20.874;2023-04-19T10:34:42;16.05;;;11.55;;
25381;SDS011;16307;42.896;20.874;2023-04-19T10:37:28;17.67;;;11.25;;
25381;SDS011;16307;42.896;20.874;2023-04-19T10:40:52;14.85;;;10.38;;
25381;SDS011;16307;42.896;20.874;2023-04-19T10:46:43;18.52;;;11.88;;
25381;SDS011;16307;42.896;20.874;2023-04-19T10:57:05;16.58;;;11.70;;
25381;SDS011;16307;42.896;20.874;2023-04-19T11:00:25;19.25;;;10.73;;
25381;SDS011;16307;42.896;20.874;2023-04-19T11:09:20;25.05;;;12.15;;
25381;SDS011;16307;42.896;20.874;2023-04-19T11:12:24;10.65;;;6.50;;
25381;SDS011;16307;42.896;20.874;2023-04-19T11:15:20;8.23;;;5.82;;
25381;SDS011;16307;42.896;20.874;2023-04-19T11:18:16;7.97;;;5.95;;
25381;SDS011;16307;42.896;20.874;2023-04-19T11:21:03;8.75;;;5.80;;
25381;SDS011;16307;42.896;20.874;2023-04-19T11:24:08;8.82;;;6.22;;
25381;SDS011;16307;42.896;20.874;2023-04-19T11:26:55;11.18;;;5.72;;
25381;SDS011;16307;42.896;20.874;2023-04-19T11:29:42;8.43;;;5.32;;
25381;SDS011;16307;42.896;20.874;2023-04-19T11:32:28;10.40;;;5.55;;
25381;SDS011;16307;42.896;20.874;2023-04-19T11:35:19;9.30;;;5.72;;
25381;SDS011;16307;42.896;20.874;2023-04-19T11:38:06;6.95;;;4.97;;
25381;SDS011;16307;42.896;20.874;2023-04-19T11:41:02;9.25;;;5.35;;
25381;SDS011;16307;42.896;20.874;2023-04-19T11:43:49;12.18;;;8.27;;
25381;SDS011;16307;42.896;20.874;2023-04-19T11:46:35;9.02;;;5.50;;
25381;SDS011;16307;42.896;20.874;2023-04-19T11:49:25;11.23;;;6.97;;
25381;SDS011;16307;42.896;20.874;2023-04-19T11:52:18;9.35;;;6.35;;
25381;SDS011;16307;42.896;20.874;2023-04-19T11:55:18;8.30;;;6.45;;
25381;SDS011;16307;42.896;20.874;2023-04-19T11:58:06;9.00;;;6.47;;
25381;SDS011;16307;42.896;20.874;2023-04-19T12:00:54;8.40;;;5.63;;
25381;SDS011;16307;42.896;20.874;2023-04-19T12:03:50;7.00;;;5.07;;
25381;SDS011;16307;42.896;20.874;2023-04-19T12:06:38;8.90;;;6.03;;
25381;SDS011;16307;42.896;20.874;2023-04-19T12:09:24;9.98;;;6.25;;
25381;SDS011;16307;42.896;20.874;2023-04-19T12:12:11;15.93;;;9.55;;
25381;SDS011;16307;42.896;20.874;2023-04-19T12:14:58;13.45;;;7.20;;
25381;SDS011;16307;42.896;20.874;2023-04-19T12:18:00;11.45;;;7.63;;
25381;SDS011;16307;42.896;20.874;2023-04-19T12:20:50;14.98;;;8.35;;
25381;SDS011;16307;42.896;20.874;2023-04-19T12:23:38;16.85;;;9.98;;
25381;SDS011;16307;42.896;20.874;2023-04-19T12:26:25;19.73;;;11.80;;
25381;SDS011;16307;42.896;20.874;2023-04-19T12:29:19;20.92;;;12.68;;
25381;SDS011;16307;42.896;20.874;2023-04-19T12:32:05;43.08;;;20.88;;
25381;SDS011;16307;42.896;20.874;2023-04-19T12:34:55;23.50;;;14.45;;
25381;SDS011;16307;42.896;20.874;2023-04-19T12:37:47;18.73;;;11.32;;
25381;SDS011;16307;42.896;20.874;2023-04-19T12:40:58;24.45;;;15.63;;
25381;SDS011;16307;42.896;20.874;2023-04-19T12:43:48;22.48;;;12.82;;
25381;SDS011;16307;42.896;20.874;2023-04-19T12:46:36;19.30;;;10.95;;
25381;SDS011;16307;42.896;20.874;2023-04-19T12:49:34;18.08;;;10.43;;
